sensor_id;sensor_type;location;lat;lon;timestamp;pressure;altitude;pressure_sealevel;temperature;humidity
61900;BME280;47853;55.890;37.664;2023-01-01T00:02:17;98860.91;;;0.78;100.00
61900;BME280;47853;55.890;37.664;2023-01-01T00:04:42;98845.00;;;0.81;100.00
61900;BME280;47853;55.890;37.664;2023-01-01T00:07:08;98833.84;;;0.90;100.00
61900;BME280;47853;55.890;37.664;2023-01-01T00:09:33;98853.91;;;0.90;100.00
61900;BME280;47853;55.890;37.664;2023-01-01T00:11:58;98853.44;;;0.73;100.00
61900;BME280;47853;55.890;37.664;2023-01-01T00:14:24;98853.91;;;0.90;100.00
61900;BME280;47853;55.890;37.664;2023-01-01T00:16:49;98848.19;;;1.07;100.00
61900;BME280;47853;55.890;37.664;2023-01-01T00:19:14;98836.56;;;1.11;100.00
61900;BME280;47853;55.890;37.664;2023-01-01T00:21:40;98840.94;;;1.22;100.00
61900;BME280;47853;55.890;37.664;2023-01-01T00:24:07;98845.97;;;1.03;100.00
61900;BME280;47853;55.890;37.664;2023-01-01T00:26:33;98850.81;;;1.07;100.00
61900;BME280;47853;55.890;37.664;2023-01-01T00:28:58;98831.78;;;1.05;100.00
61900;BME280;47853;55.890;37.664;2023-01-01T00:31:24;98818.38;;;0.98;100.00
61900;BME280;47853;55.890;37.664;2023-01-01T00:33:52;98821.94;;;1.09;100.00
61900;BME280;47853;55.890;37.664;2023-01-01T00:36:19;98810.88;;;0.94;100.00
61900;BME280;47853;55.890;37.664;2023-01-01T00:38:45;98811.50;;;0.75;100.00
61900;BME280;47853;55.890;37.664;2023-01-01T00:41:12;98802.47;;;0.79;100.00
61900;BME280;47853;55.890;37.664;2023-01-01T00:43:38;98794.16;;;0.96;100.00
61900;BME280;47853;55.890;37.664;2023-01-01T00:46:05;98791.97;;;1.13;100.00
61900;BME280;47853;55.890;37.664;2023-01-01T00:48:32;98799.94;;;1.11;100.00
61900;BME280;47853;55.890;37.664;2023-01-01T00:50:58;98779.25;;;1.08;100.00
61900;BME280;47853;55.890;37.664;2023-01-01T00:53:23;98777.13;;;1.13;100.00
61900;BME280;47853;55.890;37.664;2023-01-01T00:55:50;98761.69;;;0.88;100.00
61900;BME280;47853;55.890;37.664;2023-01-01T00:58:17;98759.09;;;0.88;100.00
61900;BME280;47853;55.890;37.664;2023-01-01T01:00:43;98760.94;;;1.20;100.00
61900;BME280;47853;55.890;37.664;2023-01-01T01:03:12;98748.75;;;0.97;100.00
61900;BME280;47853;55.890;37.664;2023-01-01T01:05:38;98759.41;;;1.06;100.00
61900;BME280;47853;55.890;37.664;2023-01-01T01:08:03;98759.19;;;0.86;100.00
61900;BME280;47853;55.890;37.664;2023-01-01T01:10:29;98752.97;;;1.10;100.00
61900;BME280;47853;55.890;37.664;2023-01-01T01:12:54;98731.47;;;1.06;100.00
61900;BME280;47853;55.890;37.664;2023-01-01T01:15:20;98735.22;;;0.92;100.00
61900;BME280;47853;55.890;37.664;2023-01-01T01:17:45;98736.00;;;1.04;100.00
61900;BME280;47853;55.890;37.664;2023-01-01T01:20:11;98735.03;;;1.05;100.00
61900;BME280;47853;55.890;37.664;2023-01-01T01:22:38;98738.63;;;0.93;100.00
61900;BME280;47853;55.890;37.664;2023-01-01T01:25:04;98714.53;;;0.89;100.00
61900;BME280;47853;55.890;37.664;2023-01-01T01:27:30;98710.63;;;1.16;100.00
61900;BME280;47853;55.890;37.664;2023-01-01T01:29:55;98708.28;;;1.13;100.00
61900;BME280;47853;55.890;37.664;2023-01-01T01:32:21;98709.03;;;1.04;100.00
61900;BME280;47853;55.890;37.664;2023-01-01T01:34:46;98705.69;;;1.01;100.00
61900;BME280;47853;55.890;37.664;2023-01-01T01:37:12;98694.19;;;0.93;100.00
61900;BME280;47853;55.890;37.664;2023-01-01T01:39:37;98693.38;;;1.25;100.00
61900;BME280;47853;55.890;37.664;2023-01-01T01:42:03;98685.94;;;1.09;100.00
61900;BME280;47853;55.890;37.664;2023-01-01T01:44:56;98699.03;;;1.09;100.00
61900;BME280;47853;55.890;37.664;2023-01-01T01:47:35;98687.91;;;0.95;100.00
61900;BME280;47853;55.890;37.664;2023-01-01T01:52:36;98704.78;;;0.91;100.00
61900;BME280;47853;55.890;37.664;2023-01-01T01:55:05;98695.59;;;0.97;100.00
61900;BME280;47853;55.890;37.664;2023-01-01T01:57:32;98685.34;;;1.05;100.00
61900;BME280;47853;55.890;37.664;2023-01-01T01:59:59;98680.34;;;1.13;100.00
61900;BME280;47853;55.890;37.664;2023-01-01T02:02:34;98692.28;;;1.27;100.00
61900;BME280;47853;55.890;37.664;2023-01-01T02:05:01;98688.16;;;1.25;100.00
61900;BME280;47853;55.890;37.664;2023-01-01T02:07:29;98660.34;;;1.24;100.00
61900;BME280;47853;55.890;37.664;2023-01-01T02:09:56;98664.44;;;1.05;100.00
61900;BME280;47853;55.890;37.664;2023-01-01T02:12:22;98653.00;;;1.06;100.00
61900;BME280;47853;55.890;37.664;2023-01-01T02:14:48;98654.91;;;1.15;100.00
61900;BME280;47853;55.890;37.664;2023-01-01T02:17:38;98661.00;;;1.05;100.00
61900;BME280;47853;55.890;37.664;2023-01-01T02:20:18;98649.59;;;1.06;100.00
61900;BME280;47853;55.890;37.664;2023-01-01T02:31:12;98636.09;;;1.22;100.00
61900;BME280;47853;55.890;37.664;2023-01-01T02:33:42;98648.50;;;1.08;100.00
61900;BME280;47853;55.890;37.664;2023-01-01T02:36:10;98642.78;;;1.14;100.00
61900;BME280;47853;55.890;37.664;2023-01-01T02:38:39;98646.97;;;1.06;100.00
61900;BME280;47853;55.890;37.664;2023-01-01T02:41:09;98638.44;;;1.25;100.00
61900;BME280;47853;55.890;37.664;2023-01-01T02:43:37;98635.13;;;1.23;100.00
61900;BME280;47853;55.890;37.664;2023-01-01T02:46:07;98613.38;;;0.90;100.00
61900;BME280;47853;55.890;37.664;2023-01-01T02:54:04;98603.81;;;1.11;100.00
61900;BME280;47853;55.890;37.664;2023-01-01T02:56:48;98596.41;;;1.17;100.00
61900;BME280;47853;55.890;37.664;2023-01-01T02:59:40;98599.31;;;1.44;100.00
61900;BME280;47853;55.890;37.664;2023-01-01T03:02:28;98594.41;;;1.09;100.00
61900;BME280;47853;55.890;37.664;2023-01-01T03:18:07;98592.41;;;1.01;100.00
61900;BME280;47853;55.890;37.664;2023-01-01T03:20:39;98579.06;;;1.15;100.00
61900;BME280;47853;55.890;37.664;2023-01-01T03:23:09;98579.53;;;1.09;100.00
61900;BME280;47853;55.890;37.664;2023-01-01T03:25:40;98575.03;;;1.11;100.00
61900;BME280;47853;55.890;37.664;2023-01-01T03:28:20;98578.22;;;1.15;100.00
61900;BME280;47853;55.890;37.664;2023-01-01T03:30:46;98567.03;;;0.92;100.00
61900;BME280;47853;55.890;37.664;2023-01-01T03:33:19;98552.25;;;1.23;100.00
61900;BME280;47853;55.890;37.664;2023-01-01T03:35:52;98552.06;;;0.94;100.00
61900;BME280;47853;55.890;37.664;2023-01-01T03:38:38;98538.66;;;1.08;100.00
61900;BME280;47853;55.890;37.664;2023-01-01T03:41:16;98542.44;;;1.15;100.00
61900;BME280;47853;55.890;37.664;2023-01-01T03:43:52;98538.16;;;0.93;100.00
61900;BME280;47853;55.890;37.664;2023-01-01T03:46:23;98532.16;;;1.03;100.00
61900;BME280;47853;55.890;37.664;2023-01-01T03:48:51;98517.97;;;1.26;100.00
61900;BME280;47853;55.890;37.664;2023-01-01T03:51:26;98505.75;;;1.27;100.00
61900;BME280;47853;55.890;37.664;2023-01-01T03:53:59;98506.38;;;1.19;100.00
61900;BME280;47853;55.890;37.664;2023-01-01T04:00:09;98512.53;;;1.39;100.00
61900;BME280;47853;55.890;37.664;2023-01-01T04:02:49;98513.19;;;1.10;100.00
61900;BME280;47853;55.890;37.664;2023-01-01T04:05:17;98520.03;;;1.23;100.00
61900;BME280;47853;55.890;37.664;2023-01-01T04:07:43;98502.81;;;1.20;100.00
61900;BME280;47853;55.890;37.664;2023-01-01T04:10:09;98510.44;;;1.33;100.00
61900;BME280;47853;55.890;37.664;2023-01-01T04:12:37;98517.06;;;1.37;100.00
61900;BME280;47853;55.890;37.664;2023-01-01T04:15:03;98526.47;;;1.40;100.00
61900;BME280;47853;55.890;37.664;2023-01-01T04:17:28;98525.44;;;1.31;100.00
61900;BME280;47853;55.890;37.664;2023-01-01T04:19:53;98519.31;;;1.42;100.00
61900;BME280;47853;55.890;37.664;2023-01-01T04:22:19;98513.13;;;1.53;100.00
61900;BME280;47853;55.890;37.664;2023-01-01T04:24:47;98511.28;;;1.34;100.00
61900;BME280;47853;55.890;37.664;2023-01-01T04:27:12;98497.16;;;1.46;100.00
61900;BME280;47853;55.890;37.664;2023-01-01T04:29:37;98478.25;;;1.33;100.00
61900;BME280;47853;55.890;37.664;2023-01-01T04:32:03;98474.72;;;1.22;100.00
61900;BME280;47853;55.890;37.664;2023-01-01T04:34:28;98468.28;;;1.26;100.00
61900;BME280;47853;55.890;37.664;2023-01-01T04:36:53;98472.63;;;1.16;100.00
61900;BME280;47853;55.890;37.664;2023-01-01T04:39:19;98481.66;;;1.33;100.00
61900;BME280;47853;55.890;37.664;2023-01-01T04:41:45;98488.25;;;1.06;100.00
61900;BME280;47853;55.890;37.664;2023-01-01T04:44:13;98487.94;;;1.21;100.00
61900;BME280;47853;55.890;37.664;2023-01-01T04:46:39;98478.69;;;1.48;100.00
61900;BME280;47853;55.890;37.664;2023-01-01T04:49:04;98482.38;;;1.35;100.00
61900;BME280;47853;55.890;37.664;2023-01-01T04:51:29;98473.19;;;1.41;100.00
61900;BME280;47853;55.890;37.664;2023-01-01T04:53:55;98478.25;;;1.42;100.00
61900;BME280;47853;55.890;37.664;2023-01-01T04:56:21;98473.72;;;1.44;100.00
61900;BME280;47853;55.890;37.664;2023-01-01T04:58:46;98475.16;;;1.58;100.00
61900;BME280;47853;55.890;37.664;2023-01-01T05:01:21;98469.81;;;1.29;100.00
61900;BME280;47853;55.890;37.664;2023-01-01T05:03:47;98454.69;;;1.33;100.00
61900;BME280;47853;55.890;37.664;2023-01-01T05:06:13;98455.50;;;1.33;100.00
61900;BME280;47853;55.890;37.664;2023-01-01T05:08:41;98456.72;;;1.29;100.00
61900;BME280;47853;55.890;37.664;2023-01-01T05:11:14;98457.50;;;1.51;100.00
61900;BME280;47853;55.890;37.664;2023-01-01T05:13:45;98461.06;;;1.40;100.00
61900;BME280;47853;55.890;37.664;2023-01-01T05:16:15;98454.72;;;1.42;100.00
61900;BME280;47853;55.890;37.664;2023-01-01T05:18:41;98464.84;;;1.57;100.00
61900;BME280;47853;55.890;37.664;2023-01-01T05:21:13;98455.34;;;1.56;100.00
61900;BME280;47853;55.890;37.664;2023-01-01T05:23:39;98459.34;;;1.70;100.00
61900;BME280;47853;55.890;37.664;2023-01-01T05:26:15;98440.81;;;1.42;100.00
61900;BME280;47853;55.890;37.664;2023-01-01T05:28:41;98456.53;;;1.42;100.00
61900;BME280;47853;55.890;37.664;2023-01-01T05:31:09;98464.09;;;1.45;100.00
61900;BME280;47853;55.890;37.664;2023-01-01T05:33:35;98458.25;;;1.32;100.00
61900;BME280;47853;55.890;37.664;2023-01-01T05:36:01;98460.16;;;1.29;100.00
61900;BME280;47853;55.890;37.664;2023-01-01T05:38:27;98457.81;;;1.26;100.00
61900;BME280;47853;55.890;37.664;2023-01-01T05:40:52;98445.31;;;1.30;100.00
61900;BME280;47853;55.890;37.664;2023-01-01T05:43:18;98440.97;;;1.50;100.00
61900;BME280;47853;55.890;37.664;2023-01-01T05:45:43;98442.25;;;1.66;100.00
61900;BME280;47853;55.890;37.664;2023-01-01T05:48:09;98447.75;;;1.63;100.00
61900;BME280;47853;55.890;37.664;2023-01-01T05:50:35;98442.56;;;1.72;100.00
61900;BME280;47853;55.890;37.664;2023-01-01T05:53:00;98432.63;;;1.66;100.00
61900;BME280;47853;55.890;37.664;2023-01-01T05:55:26;98434.13;;;1.69;100.00
61900;BME280;47853;55.890;37.664;2023-01-01T05:57:51;98422.50;;;1.52;100.00
61900;BME280;47853;55.890;37.664;2023-01-01T06:00:17;98415.34;;;1.54;100.00
61900;BME280;47853;55.890;37.664;2023-01-01T06:02:42;98423.09;;;1.55;100.00
61900;BME280;47853;55.890;37.664;2023-01-01T06:05:08;98415.72;;;1.39;100.00
61900;BME280;47853;55.890;37.664;2023-01-01T06:07:33;98411.94;;;1.22;100.00
61900;BME280;47853;55.890;37.664;2023-01-01T06:09:58;98431.03;;;1.44;100.00
61900;BME280;47853;55.890;37.664;2023-01-01T06:12:24;98427.34;;;1.56;100.00
61900;BME280;47853;55.890;37.664;2023-01-01T06:14:49;98421.69;;;1.51;100.00
61900;BME280;47853;55.890;37.664;2023-01-01T06:17:14;98421.84;;;1.59;100.00
61900;BME280;47853;55.890;37.664;2023-01-01T06:19:40;98409.47;;;1.62;100.00
61900;BME280;47853;55.890;37.664;2023-01-01T06:22:05;98410.38;;;1.41;100.00
61900;BME280;47853;55.890;37.664;2023-01-01T06:24:30;98412.50;;;1.57;100.00
61900;BME280;47853;55.890;37.664;2023-01-01T06:26:55;98402.28;;;1.54;100.00
61900;BME280;47853;55.890;37.664;2023-01-01T06:29:21;98399.66;;;1.54;100.00
61900;BME280;47853;55.890;37.664;2023-01-01T06:31:46;98398.00;;;1.53;100.00
61900;BME280;47853;55.890;37.664;2023-01-01T06:34:11;98387.97;;;1.58;100.00
61900;BME280;47853;55.890;37.664;2023-01-01T06:36:37;98396.66;;;1.68;100.00
61900;BME280;47853;55.890;37.664;2023-01-01T06:39:02;98385.63;;;1.55;100.00
61900;BME280;47853;55.890;37.664;2023-01-01T06:41:28;98392.63;;;1.54;100.00
61900;BME280;47853;55.890;37.664;2023-01-01T06:43:54;98376.28;;;1.62;100.00
61900;BME280;47853;55.890;37.664;2023-01-01T06:46:31;98384.97;;;1.72;100.00
61900;BME280;47853;55.890;37.664;2023-01-01T06:49:01;98360.69;;;1.61;100.00
61900;BME280;47853;55.890;37.664;2023-01-01T06:51:30;98367.91;;;1.78;100.00
61900;BME280;47853;55.890;37.664;2023-01-01T06:54:00;98378.91;;;1.62;100.00
61900;BME280;47853;55.890;37.664;2023-01-01T06:56:27;98342.66;;;1.67;100.00
61900;BME280;47853;55.890;37.664;2023-01-01T06:58:52;98317.84;;;1.52;100.00
61900;BME280;47853;55.890;37.664;2023-01-01T07:01:20;98341.56;;;1.70;100.00
61900;BME280;47853;55.890;37.664;2023-01-01T07:03:54;98349.41;;;1.70;100.00
61900;BME280;47853;55.890;37.664;2023-01-01T07:06:20;98351.84;;;1.52;100.00
61900;BME280;47853;55.890;37.664;2023-01-01T07:08:46;98348.03;;;1.66;100.00
61900;BME280;47853;55.890;37.664;2023-01-01T07:11:11;98344.72;;;1.64;100.00
61900;BME280;47853;55.890;37.664;2023-01-01T07:13:37;98358.91;;;1.71;100.00
61900;BME280;47853;55.890;37.664;2023-01-01T07:16:02;98358.78;;;1.72;100.00
61900;BME280;47853;55.890;37.664;2023-01-01T07:18:28;98356.13;;;1.53;100.00
61900;BME280;47853;55.890;37.664;2023-01-01T07:20:57;98349.00;;;1.55;100.00
61900;BME280;47853;55.890;37.664;2023-01-01T07:23:24;98344.84;;;1.72;100.00
61900;BME280;47853;55.890;37.664;2023-01-01T07:25:51;98350.50;;;1.57;100.00
61900;BME280;47853;55.890;37.664;2023-01-01T07:28:17;98336.44;;;1.49;100.00
61900;BME280;47853;55.890;37.664;2023-01-01T07:30:42;98333.31;;;1.84;100.00
61900;BME280;47853;55.890;37.664;2023-01-01T07:33:11;98332.06;;;1.88;100.00
61900;BME280;47853;55.890;37.664;2023-01-01T07:35:36;98330.53;;;1.96;100.00
61900;BME280;47853;55.890;37.664;2023-01-01T07:38:01;98338.28;;;1.87;100.00
61900;BME280;47853;55.890;37.664;2023-01-01T07:40:27;98333.41;;;1.73;100.00
61900;BME280;47853;55.890;37.664;2023-01-01T07:42:52;98318.41;;;2.05;100.00
61900;BME280;47853;55.890;37.664;2023-01-01T07:45:17;98325.44;;;1.74;100.00
61900;BME280;47853;55.890;37.664;2023-01-01T07:47:47;98330.28;;;1.79;100.00
61900;BME280;47853;55.890;37.664;2023-01-01T07:50:16;98327.38;;;1.92;100.00
61900;BME280;47853;55.890;37.664;2023-01-01T07:52:41;98320.91;;;1.86;100.00
61900;BME280;47853;55.890;37.664;2023-01-01T07:55:11;98327.78;;;1.87;100.00
61900;BME280;47853;55.890;37.664;2023-01-01T07:57:36;98319.50;;;2.12;100.00
61900;BME280;47853;55.890;37.664;2023-01-01T08:00:02;98310.00;;;2.01;100.00
61900;BME280;47853;55.890;37.664;2023-01-01T08:02:27;98311.53;;;2.03;100.00
61900;BME280;47853;55.890;37.664;2023-01-01T08:04:53;98306.81;;;2.07;100.00
61900;BME280;47853;55.890;37.664;2023-01-01T08:07:18;98304.63;;;1.93;100.00
61900;BME280;47853;55.890;37.664;2023-01-01T08:09:43;98292.59;;;2.20;100.00
61900;BME280;47853;55.890;37.664;2023-01-01T08:12:09;98300.22;;;1.93;100.00
61900;BME280;47853;55.890;37.664;2023-01-01T08:14:34;98297.88;;;2.10;100.00
61900;BME280;47853;55.890;37.664;2023-01-01T08:16:59;98304.88;;;2.19;100.00
61900;BME280;47853;55.890;37.664;2023-01-01T08:19:25;98302.00;;;2.60;100.00
61900;BME280;47853;55.890;37.664;2023-01-01T08:21:50;98307.94;;;2.05;100.00
61900;BME280;47853;55.890;37.664;2023-01-01T08:24:15;98315.94;;;2.03;100.00
61900;BME280;47853;55.890;37.664;2023-01-01T08:26:43;98283.00;;;2.00;100.00
61900;BME280;47853;55.890;37.664;2023-01-01T08:29:12;98289.22;;;1.99;100.00
61900;BME280;47853;55.890;37.664;2023-01-01T08:31:37;98294.59;;;2.55;100.00
61900;BME280;47853;55.890;37.664;2023-01-01T08:34:03;98298.66;;;2.30;100.00
61900;BME280;47853;55.890;37.664;2023-01-01T08:36:28;98294.41;;;2.19;100.00
61900;BME280;47853;55.890;37.664;2023-01-01T08:38:53;98293.03;;;2.05;100.00
61900;BME280;47853;55.890;37.664;2023-01-01T08:41:26;98293.84;;;2.25;100.00
61900;BME280;47853;55.890;37.664;2023-01-01T08:43:51;98278.91;;;2.36;100.00
61900;BME280;47853;55.890;37.664;2023-01-01T08:46:17;98287.50;;;2.18;100.00
61900;BME280;47853;55.890;37.664;2023-01-01T08:48:42;98267.63;;;2.25;100.00
61900;BME280;47853;55.890;37.664;2023-01-01T08:51:08;98263.47;;;2.32;100.00
61900;BME280;47853;55.890;37.664;2023-01-01T08:53:34;98263.66;;;2.11;100.00
61900;BME280;47853;55.890;37.664;2023-01-01T08:56:18;98254.25;;;2.28;100.00
61900;BME280;47853;55.890;37.664;2023-01-01T08:58:43;98253.34;;;2.10;100.00
61900;BME280;47853;55.890;37.664;2023-01-01T09:01:09;98266.84;;;2.05;100.00
61900;BME280;47853;55.890;37.664;2023-01-01T09:03:35;98269.41;;;2.35;100.00
61900;BME280;47853;55.890;37.664;2023-01-01T09:06:00;98276.63;;;2.13;100.00
61900;BME280;47853;55.890;37.664;2023-01-01T09:08:26;98275.13;;;2.10;100.00
61900;BME280;47853;55.890;37.664;2023-01-01T09:10:59;98272.09;;;2.15;100.00
61900;BME280;47853;55.890;37.664;2023-01-01T09:13:25;98276.63;;;2.13;100.00
61900;BME280;47853;55.890;37.664;2023-01-01T09:15:50;98265.19;;;2.14;100.00
61900;BME280;47853;55.890;37.664;2023-01-01T09:18:16;98238.50;;;2.38;100.00
61900;BME280;47853;55.890;37.664;2023-01-01T09:20:41;98239.25;;;2.58;100.00
61900;BME280;47853;55.890;37.664;2023-01-01T09:23:07;98236.34;;;2.24;100.00
61900;BME280;47853;55.890;37.664;2023-01-01T09:25:34;98238.25;;;2.31;100.00
61900;BME280;47853;55.890;37.664;2023-01-01T09:28:01;98235.38;;;2.25;100.00
61900;BME280;47853;55.890;37.664;2023-01-01T09:30:27;98230.09;;;2.35;100.00
61900;BME280;47853;55.890;37.664;2023-01-01T09:32:53;98234.53;;;2.34;100.00
61900;BME280;47853;55.890;37.664;2023-01-01T09:35:18;98226.56;;;2.26;100.00
61900;BME280;47853;55.890;37.664;2023-01-01T09:37:44;98225.09;;;2.51;100.00
61900;BME280;47853;55.890;37.664;2023-01-01T09:43:24;98233.56;;;2.63;100.00
61900;BME280;47853;55.890;37.664;2023-01-01T09:48:25;98200.91;;;2.57;100.00
61900;BME280;47853;55.890;37.664;2023-01-01T09:50:52;98216.84;;;2.46;100.00
61900;BME280;47853;55.890;37.664;2023-01-01T09:53:38;98219.00;;;2.51;100.00
61900;BME280;47853;55.890;37.664;2023-01-01T09:56:05;98198.00;;;2.60;100.00
61900;BME280;47853;55.890;37.664;2023-01-01T09:58:36;98195.09;;;2.64;100.00
61900;BME280;47853;55.890;37.664;2023-01-01T10:06:43;98195.81;;;2.56;100.00
61900;BME280;47853;55.890;37.664;2023-01-01T10:09:27;98187.59;;;2.69;100.00
61900;BME280;47853;55.890;37.664;2023-01-01T10:12:13;98189.06;;;2.53;100.00
61900;BME280;47853;55.890;37.664;2023-01-01T10:14:43;98182.53;;;2.67;100.00
61900;BME280;47853;55.890;37.664;2023-01-01T10:17:34;98186.88;;;2.77;100.00
61900;BME280;47853;55.890;37.664;2023-01-01T10:20:17;98155.75;;;2.64;100.00
61900;BME280;47853;55.890;37.664;2023-01-01T10:22:46;98156.44;;;2.66;100.00
61900;BME280;47853;55.890;37.664;2023-01-01T10:25:20;98155.78;;;2.82;100.00
61900;BME280;47853;55.890;37.664;2023-01-01T10:30:19;98153.47;;;2.79;100.00
61900;BME280;47853;55.890;37.664;2023-01-01T10:32:49;98158.94;;;2.85;100.00
61900;BME280;47853;55.890;37.664;2023-01-01T10:35:21;98155.44;;;2.95;100.00
61900;BME280;47853;55.890;37.664;2023-01-01T10:37:47;98154.75;;;2.93;100.00
61900;BME280;47853;55.890;37.664;2023-01-01T10:40:20;98132.44;;;2.88;100.00
61900;BME280;47853;55.890;37.664;2023-01-01T10:42:54;98140.56;;;2.67;100.00
61900;BME280;47853;55.890;37.664;2023-01-01T10:45:32;98123.28;;;2.93;100.00
61900;BME280;47853;55.890;37.664;2023-01-01T10:48:18;98131.06;;;2.84;100.00
61900;BME280;47853;55.890;37.664;2023-01-01T10:50:58;98129.41;;;2.83;100.00
61900;BME280;47853;55.890;37.664;2023-01-01T10:53:40;98130.63;;;2.89;100.00
61900;BME280;47853;55.890;37.664;2023-01-01T10:56:10;98129.34;;;2.93;100.00
61900;BME280;47853;55.890;37.664;2023-01-01T10:58:43;98123.19;;;2.84;100.00
61900;BME280;47853;55.890;37.664;2023-01-01T11:01:21;98112.56;;;3.22;100.00
61900;BME280;47853;55.890;37.664;2023-01-01T11:09:27;98126.97;;;3.00;100.00
61900;BME280;47853;55.890;37.664;2023-01-01T11:11:56;98117.13;;;3.02;100.00
61900;BME280;47853;55.890;37.664;2023-01-01T11:14:38;98114.94;;;2.97;100.00
61900;BME280;47853;55.890;37.664;2023-01-01T11:17:05;98111.66;;;2.95;100.00
61900;BME280;47853;55.890;37.664;2023-01-01T11:19:36;98116.47;;;3.00;100.00
61900;BME280;47853;55.890;37.664;2023-01-01T11:22:04;98100.50;;;3.11;100.00
61900;BME280;47853;55.890;37.664;2023-01-01T11:24:33;98105.34;;;3.24;100.00
61900;BME280;47853;55.890;37.664;2023-01-01T11:27:20;98103.94;;;3.12;100.00
61900;BME280;47853;55.890;37.664;2023-01-01T11:29:45;98093.16;;;3.15;100.00
61900;BME280;47853;55.890;37.664;2023-01-01T11:32:19;98099.88;;;3.17;100.00
61900;BME280;47853;55.890;37.664;2023-01-01T11:34:58;98090.88;;;3.20;100.00
61900;BME280;47853;55.890;37.664;2023-01-01T11:37:27;98098.50;;;3.31;100.00
61900;BME280;47853;55.890;37.664;2023-01-01T11:39:55;98075.28;;;3.18;100.00
61900;BME280;47853;55.890;37.664;2023-01-01T11:42:31;98083.53;;;3.24;100.00
61900;BME280;47853;55.890;37.664;2023-01-01T11:45:01;98092.97;;;3.34;100.00
61900;BME280;47853;55.890;37.664;2023-01-01T11:47:33;98086.81;;;3.26;100.00
61900;BME280;47853;55.890;37.664;2023-01-01T11:52:43;98059.78;;;3.25;100.00
61900;BME280;47853;55.890;37.664;2023-01-01T12:00:32;98066.53;;;3.54;100.00
61900;BME280;47853;55.890;37.664;2023-01-01T12:08:30;98064.41;;;3.58;100.00
61900;BME280;47853;55.890;37.664;2023-01-01T12:11:23;98057.28;;;3.50;100.00
61900;BME280;47853;55.890;37.664;2023-01-01T12:13:58;98053.31;;;3.46;100.00
61900;BME280;47853;55.890;37.664;2023-01-01T12:17:22;98054.84;;;3.48;100.00
61900;BME280;47853;55.890;37.664;2023-01-01T12:19:58;98045.34;;;3.56;100.00
61900;BME280;47853;55.890;37.664;2023-01-01T12:22:26;98033.84;;;3.48;100.00
61900;BME280;47853;55.890;37.664;2023-01-01T12:24:52;98047.00;;;3.57;100.00
61900;BME280;47853;55.890;37.664;2023-01-01T12:30:21;98058.13;;;3.51;100.00
61900;BME280;47853;55.890;37.664;2023-01-01T12:32:54;98052.78;;;3.60;100.00
61900;BME280;47853;55.890;37.664;2023-01-01T12:43:14;98047.38;;;3.70;100.00
61900;BME280;47853;55.890;37.664;2023-01-01T12:51:04;98034.53;;;3.59;100.00
61900;BME280;47853;55.890;37.664;2023-01-01T12:59:14;98027.00;;;3.64;100.00
61900;BME280;47853;55.890;37.664;2023-01-01T13:01:43;98024.69;;;3.61;100.00
61900;BME280;47853;55.890;37.664;2023-01-01T13:04:21;98037.38;;;3.66;100.00
61900;BME280;47853;55.890;37.664;2023-01-01T13:06:52;98009.66;;;3.71;100.00
61900;BME280;47853;55.890;37.664;2023-01-01T13:09:26;98028.66;;;3.65;100.00
61900;BME280;47853;55.890;37.664;2023-01-01T13:14:37;98013.88;;;3.64;100.00
61900;BME280;47853;55.890;37.664;2023-01-01T13:17:03;98008.72;;;3.46;100.00
61900;BME280;47853;55.890;37.664;2023-01-01T13:19:34;98023.91;;;3.60;100.00
61900;BME280;47853;55.890;37.664;2023-01-01T13:30:48;98007.50;;;3.67;100.00
61900;BME280;47853;55.890;37.664;2023-01-01T13:33:28;98003.56;;;3.62;100.00
61900;BME280;47853;55.890;37.664;2023-01-01T13:51:55;97978.34;;;3.78;100.00
61900;BME280;47853;55.890;37.664;2023-01-01T13:54:40;97991.78;;;3.75;100.00
61900;BME280;47853;55.890;37.664;2023-01-01T14:03:07;97984.34;;;4.13;100.00
61900;BME280;47853;55.890;37.664;2023-01-01T14:05:34;97975.69;;;3.70;100.00
61900;BME280;47853;55.890;37.664;2023-01-01T14:08:01;97960.63;;;3.80;100.00
61900;BME280;47853;55.890;37.664;2023-01-01T14:10:29;97952.53;;;3.73;100.00
61900;BME280;47853;55.890;37.664;2023-01-01T14:13:13;97979.97;;;3.71;100.00
61900;BME280;47853;55.890;37.664;2023-01-01T14:15:41;97971.63;;;3.84;100.00
61900;BME280;47853;55.890;37.664;2023-01-01T14:18:16;97966.47;;;3.66;100.00
61900;BME280;47853;55.890;37.664;2023-01-01T14:20:44;97960.06;;;3.68;100.00
61900;BME280;47853;55.890;37.664;2023-01-01T14:23:15;97976.22;;;3.82;100.00
61900;BME280;47853;55.890;37.664;2023-01-01T14:25:43;97969.13;;;3.74;100.00
61900;BME280;47853;55.890;37.664;2023-01-01T14:28:19;97979.97;;;3.79;100.00
61900;BME280;47853;55.890;37.664;2023-01-01T14:30:47;97963.59;;;3.85;100.00
61900;BME280;47853;55.890;37.664;2023-01-01T14:33:30;97957.69;;;3.91;100.00
61900;BME280;47853;55.890;37.664;2023-01-01T14:36:05;97956.72;;;3.92;100.00
61900;BME280;47853;55.890;37.664;2023-01-01T14:38:34;97933.56;;;3.88;100.00
61900;BME280;47853;55.890;37.664;2023-01-01T14:43:35;97940.94;;;3.84;100.00
61900;BME280;47853;55.890;37.664;2023-01-01T14:46:00;97940.81;;;4.02;100.00
61900;BME280;47853;55.890;37.664;2023-01-01T14:48:25;97930.66;;;4.16;100.00
61900;BME280;47853;55.890;37.664;2023-01-01T14:50:52;97949.69;;;4.18;100.00
61900;BME280;47853;55.890;37.664;2023-01-01T14:53:28;97920.63;;;4.11;100.00
61900;BME280;47853;55.890;37.664;2023-01-01T14:55:54;97924.56;;;4.07;100.00
61900;BME280;47853;55.890;37.664;2023-01-01T14:58:25;97919.66;;;4.12;100.00
61900;BME280;47853;55.890;37.664;2023-01-01T15:00:52;97934.59;;;4.12;100.00
61900;BME280;47853;55.890;37.664;2023-01-01T15:03:19;97937.25;;;4.20;100.00
61900;BME280;47853;55.890;37.664;2023-01-01T15:05:59;97934.25;;;4.06;100.00